• Join FlightAware (Why Join?)
  • Login
  • US Flag 
08:41AM EDT


 

Airport Tracker/Info


-or-


 

Live Flight TrackerFlight Track Log ✈ SKW4664 ✈ 02-May-2013 ✈ KMSP - KFSD

Flight Track Log - Related Links

Times and Time Zones

All times are in EDT time to prevent confusion due to time zone crossing. See the SKW4664 flight status page for this flight to view local times or setup timezone preferences in your user account.

Time Position Orientation Groundspeed Altitude Reporting Facility
EDT Latitude Longitude Course Direction KTS MPH feet Rate Location/Type
10:39AM 44.8928 -93.3033 235° Southwest 200 230 3,800  Level Minneapolis Center
10:40AM 44.8631 -93.3900 244° Southwest 275 316 6,300 1,620 Climbing Minneapolis Center
10:41AM 44.6601 -93.6799 235° Southwest  Level FlightAware Approximate
10:41AM 44.7858 -93.4000 185° South 286 329 7,200  Level Minneapolis Center
10:42AM 44.6013 -93.7974 235° Southwest  Level FlightAware Approximate
10:42AM 44.7325 -93.4692 223° Southwest 281 323 9,800  Level Minneapolis Center
10:43AM 44.5342 -93.9041 230° Southwest  Level FlightAware Approximate
10:43AM 44.6847 -93.5897 241° Southwest 296 341 13,200  Level Minneapolis Center
10:44AM 44.4837 -93.9994 235° Southwest  Level FlightAware Approximate
10:44AM 44.6444 -93.6933 241° Southwest 307 353 15,600  Level Minneapolis Center
10:45AM 44.6036 -93.7958 241° Southwest 301 346 17,400 1,200 Climbing Minneapolis Center
10:46AM 44.5642 -93.9050 243° Southwest 314 361 18,200 1,320 Climbing Minneapolis Center
10:47AM 44.5333 -94.0158 249° West 309 356 20,200 1,740 Climbing Minneapolis Center
10:48AM 44.4942 -94.1481 247° West 307 353 21,900 1,320 Climbing Minneapolis Center
10:49AM 44.4589 -94.2608 246° West 315 362 23,000 480 Climbing Minneapolis Center
10:50AM 44.4306 -94.3553 247° West 323 372 23,000  Level Minneapolis Center
10:51AM 44.3931 -94.4756 246° West 337 388 23,000  Level Minneapolis Center
10:52AM 44.3442 -94.6325 247° West 339 390 23,000  Level Minneapolis Center
10:53AM 44.3061 -94.7522 246° West 338 389 23,000  Level Minneapolis Center
10:54AM 44.2769 -94.8503 247° West 342 394 23,000  Level Minneapolis Center
10:55AM 44.2308 -94.9964 246° West 342 394 23,000 -60 Level Minneapolis Center
10:56AM 44.1914 -95.1181 246° West 344 396 22,900 -840 Descending Minneapolis Center
10:57AM 44.1522 -95.2397 246° West 344 396 21,300 -1,680 Descending Minneapolis Center
10:58AM 44.1092 -95.3792 247° West 330 380 19,500 -1,620 Descending Minneapolis Center
10:59AM 44.0708 -95.4944 245° Southwest 327 376 18,000 -1,200 Descending Minneapolis Center
11:00AM 44.0308 -95.6178 246° West 343 395 17,100 -1,020 Descending Minneapolis Center
11:01AM 43.9892 -95.7475 246° West 359 413 16,000 -540 Descending Minneapolis Center
11:02AM 43.9478 -95.8758 246° West 363 418 16,000 -720 Level Minneapolis Center
11:04AM 43.9075 -96.0011 246° West 356 410 14,600 -2,100 Descending Minneapolis Center
11:05AM 43.8667 -96.1206 245° Southwest 346 398 11,800 -2,160 Descending Minneapolis Center
11:06AM 43.8306 -96.2333 246° West 332 382 10,200 -1,680 Descending Minneapolis Center
11:07AM 43.7853 -96.3217 235° Southwest 301 346 8,400 -1,860 Descending Minneapolis Center
11:08AM 43.7247 -96.4197 230° Southwest 285 328 6,500 -1,440 Descending Minneapolis Center
11:09AM 43.6678 -96.4975 225° Southwest 285 328 5,500 -1,020 Descending Minneapolis Center
11:10AM 43.6039 -96.5650 217° Southwest 288 331 4,500 -900 Descending Minneapolis Center
11:11AM 43.5500 -96.6275 220° Southwest 273 314 3,700 -840 Descending Minneapolis Center